createdAt,value
2019-05-07T00:02:19.339Z,14.35
2019-05-07T00:04:55.284Z,15.13
2019-05-07T00:07:32.062Z,13.13
2019-05-07T00:10:08.018Z,15.78
2019-05-07T00:12:43.974Z,16.73
2019-05-07T00:15:19.943Z,16.00
2019-05-07T00:17:55.886Z,14.33
2019-05-07T00:20:32.681Z,16.02
2019-05-07T00:23:08.935Z,17.92
2019-05-07T00:25:44.893Z,17.15
2019-05-07T00:28:22.826Z,20.37
2019-05-07T00:30:58.433Z,13.35
2019-05-07T00:33:35.629Z,16.20
2019-05-07T00:36:28.164Z,14.95
2019-05-07T00:39:23.690Z,17.65
2019-05-07T00:42:04.142Z,17.20
2019-05-07T00:45:13.201Z,15.68
2019-05-07T00:47:35.717Z,14.23
2019-05-07T00:50:13.421Z,16.25
2019-05-07T00:52:49.369Z,14.43
2019-05-07T00:55:25.326Z,12.20
2019-05-07T00:58:02.373Z,15.50
2019-05-07T01:00:38.878Z,14.40
2019-05-07T01:03:14.841Z,14.38
2019-05-07T01:05:52.776Z,13.72
2019-05-07T01:08:28.497Z,13.25
2019-05-07T01:11:04.555Z,13.65
2019-05-07T01:13:40.500Z,14.25
2019-05-07T01:16:16.371Z,15.15
2019-05-07T01:18:53.775Z,13.93
2019-05-07T01:21:32.513Z,13.18
2019-05-07T01:24:08.831Z,15.13
2019-05-07T01:26:44.790Z,12.90
2019-05-07T01:29:22.602Z,18.17
2019-05-07T01:32:12.699Z,14.25
2019-05-07T01:34:52.331Z,15.83
2019-05-07T01:37:27.965Z,16.20
2019-05-07T01:40:04.037Z,13.50
2019-05-07T01:42:42.350Z,18.50
2019-05-07T01:45:17.884Z,16.27
2019-05-07T01:47:53.843Z,12.93
2019-05-07T01:50:32.094Z,14.68
2019-05-07T01:53:07.903Z,20.48
2019-05-07T01:55:43.861Z,18.45
2019-05-07T01:58:21.993Z,14.90
2019-05-07T02:00:57.655Z,14.38
2019-05-07T02:03:35.108Z,20.80
2019-05-07T02:06:13.206Z,13.38
2019-05-07T02:08:53.893Z,18.07
2019-05-07T02:11:34.147Z,13.62
2019-05-07T02:14:10.107Z,18.10
2019-05-07T02:16:46.474Z,16.27
2019-05-07T02:19:22.429Z,16.85
2019-05-07T02:21:59.512Z,15.93
2019-05-07T02:24:35.468Z,15.32
2019-05-07T02:27:12.618Z,17.32
2019-05-07T02:29:48.825Z,17.23
2019-05-07T02:32:24.773Z,16.02
2019-05-07T02:35:03.995Z,17.92
2019-05-07T02:37:48.345Z,16.60
2019-05-07T02:40:22.707Z,20.32
2019-05-07T02:42:57.529Z,16.00
2019-05-07T02:45:53.590Z,17.85
2019-05-07T02:48:34.007Z,17.57
2019-05-07T02:51:14.446Z,20.10
2019-05-07T02:53:55.013Z,20.60
2019-05-07T02:56:33.262Z,18.23
2019-05-07T02:59:08.561Z,19.77
2019-05-07T03:01:44.734Z,22.25
2019-05-07T03:04:20.695Z,15.13
2019-05-07T03:06:56.636Z,16.37
2019-05-07T03:09:33.012Z,19.65
2019-05-07T03:12:08.969Z,17.15
2019-05-07T03:14:44.861Z,19.57
2019-05-07T03:17:24.247Z,19.00
2019-05-07T03:20:03.181Z,19.92
2019-05-07T03:22:37.907Z,15.05
2019-05-07T03:25:15.612Z,17.42
2019-05-07T03:27:53.590Z,17.27
2019-05-07T03:30:35.540Z,20.12
2019-05-07T03:33:15.694Z,16.67
2019-05-07T03:35:49.258Z,18.23
2019-05-07T03:38:25.220Z,19.32
2019-05-07T03:41:03.740Z,14.03
2019-05-07T03:43:38.969Z,14.75
2019-05-07T03:46:19.154Z,18.15
2019-05-07T03:48:55.083Z,17.23
2019-05-07T03:51:32.925Z,16.87
2019-05-07T03:54:08.633Z,16.52
2019-05-07T03:56:44.560Z,19.55
2019-05-07T03:59:23.119Z,17.00
2019-05-07T04:01:58.140Z,13.88
2019-05-07T04:04:34.095Z,18.23
2019-05-07T04:07:13.510Z,16.50
2019-05-07T04:09:47.761Z,13.83
2019-05-07T04:12:24.221Z,16.00
2019-05-07T04:15:03.417Z,12.68
2019-05-07T04:17:42.975Z,17.07
2019-05-07T04:20:19.336Z,13.80
2019-05-07T04:22:55.345Z,12.05
2019-05-07T04:25:36.532Z,16.20
2019-05-07T04:28:24.181Z,12.65
2019-05-07T04:31:02.923Z,12.82
2019-05-07T04:33:43.688Z,10.05
2019-05-07T04:36:22.768Z,16.97
2019-05-07T04:38:57.415Z,13.05
2019-05-07T04:41:33.331Z,10.63
2019-05-07T04:44:09.237Z,13.32
2019-05-07T04:46:48.116Z,16.62
2019-05-07T04:49:23.814Z,10.45
2019-05-07T04:52:05.460Z,11.55
2019-05-07T04:54:43.740Z,12.30
2019-05-07T04:57:25.985Z,11.40
2019-05-07T05:00:03.400Z,13.88
2019-05-07T05:02:43.459Z,12.78
2019-05-07T05:05:19.855Z,14.25
2019-05-07T05:07:55.846Z,15.05
2019-05-07T05:10:33.656Z,12.10
2019-05-07T05:13:09.491Z,14.40
2019-05-07T05:15:45.435Z,16.15
2019-05-07T05:18:22.040Z,15.03
2019-05-07T05:21:03.421Z,15.25
2019-05-07T05:23:41.931Z,13.80
2019-05-07T05:26:18.077Z,15.43
2019-05-07T05:28:54.035Z,15.93
2019-05-07T05:31:29.978Z,14.93
2019-05-07T05:34:05.949Z,15.10
2019-05-07T05:36:42.656Z,12.93
2019-05-07T05:39:18.670Z,13.65
2019-05-07T05:41:56.108Z,12.90
2019-05-07T05:44:33.857Z,12.65
2019-05-07T05:47:11.730Z,15.43
2019-05-07T05:49:47.522Z,20.23
2019-05-07T05:52:44.062Z,20.00
2019-05-07T05:55:22.595Z,18.60
2019-05-07T05:58:16.342Z,14.95
2019-05-07T06:00:53.958Z,11.12
2019-05-07T06:03:46.594Z,13.65
2019-05-07T06:06:24.076Z,14.53
2019-05-07T06:09:13.969Z,16.73
2019-05-07T06:11:51.988Z,13.18
2019-05-07T06:14:33.108Z,15.85
2019-05-07T06:17:32.059Z,12.70
2019-05-07T06:20:13.534Z,14.20
2019-05-07T06:23:07.606Z,10.55
2019-05-07T06:25:45.094Z,11.25
2019-05-07T06:28:22.330Z,10.70
2019-05-07T06:30:58.452Z,15.30
2019-05-07T06:33:34.409Z,10.05
2019-05-07T06:36:12.457Z,12.10
2019-05-07T06:38:49.589Z,13.55
2019-05-07T06:41:43.363Z,13.03
2019-05-07T06:44:22.367Z,14.63
2019-05-07T06:46:58.475Z,11.68
2019-05-07T06:49:34.521Z,12.85
2019-05-07T06:52:12.272Z,12.18
2019-05-07T06:54:48.378Z,13.20
2019-05-07T06:57:25.963Z,11.33
2019-05-07T07:00:12.988Z,11.35
2019-05-07T07:02:53.653Z,13.35
2019-05-07T07:05:34.215Z,12.28
2019-05-07T07:08:12.492Z,13.28
2019-05-07T07:11:02.748Z,10.35
2019-05-07T07:13:39.293Z,13.25
2019-05-07T07:16:15.240Z,16.12
2019-05-07T07:18:53.058Z,11.53
2019-05-07T07:21:28.800Z,10.78
2019-05-07T07:24:04.972Z,13.30
2019-05-07T07:26:42.224Z,15.55
2019-05-07T07:29:21.504Z,13.75
2019-05-07T07:32:02.453Z,11.85
2019-05-07T07:34:42.538Z,14.83
2019-05-07T07:37:31.998Z,12.98
2019-05-07T07:40:27.896Z,12.65
2019-05-07T07:43:07.021Z,12.28
2019-05-07T07:45:42.473Z,17.12
2019-05-07T07:48:18.744Z,12.23
2019-05-07T07:50:54.704Z,15.20
2019-05-07T07:53:33.108Z,16.17
2019-05-07T07:56:25.275Z,16.73
2019-05-07T07:59:18.042Z,16.27
2019-05-07T08:02:13.926Z,17.85
2019-05-07T08:04:49.888Z,17.65
2019-05-07T08:07:25.839Z,16.42
2019-05-07T08:10:02.684Z,19.25
2019-05-07T08:12:38.778Z,21.05
2019-05-07T08:15:20.869Z,18.00
2019-05-07T08:17:53.649Z,17.87
2019-05-07T08:20:29.706Z,25.37
2019-05-07T08:23:05.675Z,19.20
2019-05-07T08:25:52.480Z,20.85
2019-05-07T08:28:28.536Z,21.20
2019-05-07T08:31:16.267Z,16.40
2019-05-07T08:34:14.025Z,16.93
2019-05-07T08:36:48.232Z,16.95
2019-05-07T08:39:25.218Z,18.02
2019-05-07T08:42:02.050Z,18.98
2019-05-07T08:44:39.804Z,18.42
2019-05-07T08:47:17.307Z,18.82
2019-05-07T08:49:53.255Z,19.65
2019-05-07T08:52:29.208Z,20.20
2019-05-07T08:55:07.916Z,19.07
2019-05-07T08:57:46.003Z,16.55
2019-05-07T09:00:23.823Z,17.27
2019-05-07T09:03:01.648Z,18.77
2019-05-07T09:05:38.411Z,17.75
2019-05-07T09:08:14.381Z,18.50
2019-05-07T09:10:52.389Z,14.10
2019-05-07T09:13:28.136Z,14.35
2019-05-07T09:16:04.296Z,14.43
2019-05-07T09:18:42.210Z,13.80
2019-05-07T09:21:18.243Z,16.00
2019-05-07T09:23:54.145Z,17.80
2019-05-07T09:26:32.336Z,16.23
2019-05-07T09:29:11.834Z,14.50
2019-05-07T09:31:49.443Z,14.15
2019-05-07T09:34:26.937Z,10.72
2019-05-07T09:37:04.437Z,16.35
2019-05-07T09:39:42.647Z,12.88
2019-05-07T09:42:17.992Z,14.18
2019-05-07T09:44:54.049Z,13.53
2019-05-07T09:47:32.287Z,12.25
2019-05-07T09:50:09.062Z,14.63
2019-05-07T09:52:45.097Z,12.43
2019-05-07T09:58:39.061Z,16.95
2019-05-07T10:01:13.511Z,15.78
2019-05-07T10:03:49.468Z,12.90
2019-05-07T10:06:25.426Z,15.23
2019-05-07T10:09:02.871Z,13.25
2019-05-07T10:11:45.118Z,11.12
2019-05-07T10:14:22.387Z,11.73
2019-05-07T10:17:03.060Z,17.57
2019-05-07T10:19:39.029Z,13.05
2019-05-07T10:22:15.384Z,11.97
2019-05-07T10:24:52.202Z,11.05
2019-05-07T10:27:28.539Z,11.12
2019-05-07T10:30:05.166Z,12.73
2019-05-07T10:32:42.440Z,10.38
2019-05-07T10:35:18.761Z,10.38
2019-05-07T10:37:54.708Z,16.50
2019-05-07T10:40:32.579Z,7.85
2019-05-07T10:43:08.678Z,11.83
2019-05-07T10:46:02.456Z,11.03
2019-05-07T10:48:42.811Z,9.70
2019-05-07T10:51:18.859Z,10.28
2019-05-07T10:53:54.827Z,9.10
2019-05-07T10:56:32.607Z,7.60
2019-05-07T10:59:08.584Z,7.17
2019-05-07T11:01:52.422Z,7.58
2019-05-07T11:04:39.300Z,6.65
2019-05-07T11:07:06.183Z,10.78
2019-05-07T11:09:42.124Z,7.12
2019-05-07T11:12:17.998Z,7.15
2019-05-07T11:14:53.933Z,4.37
2019-05-07T11:17:41.880Z,6.03
2019-05-07T11:20:18.343Z,9.63
2019-05-07T11:22:54.301Z,7.92
2019-05-07T11:25:30.368Z,6.58
2019-05-07T11:28:06.518Z,9.13
2019-05-07T11:30:43.292Z,7.85
2019-05-07T11:33:19.260Z,9.60
2019-05-07T11:35:55.204Z,5.80
2019-05-07T11:38:33.093Z,9.23
2019-05-07T11:41:09.783Z,6.10
2019-05-07T11:43:47.375Z,7.72
2019-05-07T11:46:32.697Z,7.28
2019-05-07T11:49:19.471Z,7.42
2019-05-07T11:52:05.966Z,10.20
2019-05-07T11:54:42.147Z,9.75
2019-05-07T11:57:18.287Z,9.75
2019-05-07T11:59:54.437Z,7.58
2019-05-07T12:02:32.025Z,9.23
2019-05-07T12:05:08.988Z,9.68
2019-05-07T12:07:44.990Z,11.65
2019-05-07T12:10:22.283Z,8.40
2019-05-07T12:12:58.326Z,8.63
2019-05-07T12:15:34.292Z,9.98
2019-05-07T12:18:11.920Z,8.00
2019-05-07T12:20:48.049Z,10.35
2019-05-07T12:23:23.995Z,13.05
2019-05-07T12:26:02.168Z,10.03
2019-05-07T12:28:37.648Z,8.60
2019-05-07T12:31:22.457Z,8.25
2019-05-07T12:34:03.079Z,18.05
2019-05-07T12:36:39.028Z,8.65
2019-05-07T12:39:15.218Z,11.70
2019-05-07T12:41:52.444Z,8.70
2019-05-07T12:44:28.555Z,11.50
2019-05-07T12:47:05.894Z,8.18
2019-05-07T12:49:42.870Z,8.10
2019-05-07T12:52:22.755Z,7.37
2019-05-07T12:55:00.353Z,8.98
2019-05-07T12:57:36.314Z,10.90
2019-05-07T13:00:32.295Z,9.40
2019-05-07T13:03:09.932Z,11.45
2019-05-07T13:05:45.891Z,8.43
2019-05-07T13:08:23.016Z,11.18
2019-05-07T13:11:00.268Z,6.83
2019-05-07T13:13:36.215Z,5.45
2019-05-07T13:16:12.770Z,11.15
2019-05-07T13:18:49.571Z,8.73
2019-05-07T13:21:25.528Z,9.50
2019-05-07T13:24:07.259Z,12.40
2019-05-07T13:26:46.953Z,12.05
2019-05-07T13:29:22.831Z,9.20
2019-05-07T13:32:02.770Z,12.18
2019-05-07T13:34:39.441Z,10.05
2019-05-07T13:37:29.928Z,12.43
2019-05-07T13:40:11.937Z,12.15
2019-05-07T13:42:48.716Z,16.45
2019-05-07T13:45:33.058Z,15.72
2019-05-07T13:48:16.897Z,14.68
2019-05-07T13:50:53.159Z,11.22
2019-05-07T13:53:29.128Z,12.43
2019-05-07T13:56:05.392Z,12.63
2019-05-07T13:58:42.879Z,18.32
2019-05-07T14:01:22.837Z,44.48
2019-05-07T14:03:58.579Z,19.07
2019-05-07T14:06:43.000Z,26.40
2019-05-07T14:09:24.340Z,15.68
2019-05-07T14:14:37.425Z,20.00
2019-05-07T14:17:13.421Z,17.37
2019-05-07T14:19:49.375Z,17.35
2019-05-07T14:22:25.321Z,14.87
2019-05-07T14:25:01.297Z,14.58
2019-05-07T14:27:37.241Z,13.60
2019-05-07T14:30:13.652Z,15.68
2019-05-07T14:32:52.600Z,14.05
2019-05-07T14:35:46.414Z,12.53
2019-05-07T14:38:34.953Z,13.95
2019-05-07T14:41:15.223Z,13.53
2019-05-07T14:44:09.396Z,14.73
2019-05-07T14:46:50.740Z,10.80
2019-05-07T14:49:23.059Z,12.45
2019-05-07T14:51:59.004Z,13.40
2019-05-07T14:54:35.896Z,12.85
2019-05-07T14:57:11.882Z,16.65
2019-05-07T14:59:47.913Z,16.75
2019-05-07T15:02:24.367Z,16.02
2019-05-07T15:05:02.660Z,12.65
2019-05-07T15:07:38.237Z,14.83
2019-05-07T15:10:14.411Z,11.68
2019-05-07T15:12:54.879Z,11.20
2019-05-07T15:15:31.636Z,15.40
2019-05-07T15:18:35.523Z,19.80
2019-05-07T15:21:14.480Z,18.02
2019-05-07T15:23:52.983Z,19.55
2019-05-07T15:26:30.180Z,17.75
2019-05-07T15:29:07.774Z,19.07
2019-05-07T15:31:56.629Z,12.50
2019-05-07T15:34:34.014Z,16.97
2019-05-07T15:37:12.391Z,16.95
2019-05-07T15:39:48.895Z,18.12
2019-05-07T15:42:24.040Z,15.32
2019-05-07T15:45:02.127Z,16.15
2019-05-07T15:47:42.360Z,18.27
2019-05-07T15:50:18.349Z,15.70
2019-05-07T15:53:14.268Z,17.57
2019-05-07T15:55:52.569Z,23.05
2019-05-07T15:58:28.756Z,19.45
2019-05-07T16:01:04.821Z,15.83
2019-05-07T16:03:45.266Z,15.08
2019-05-07T16:06:22.040Z,16.05
2019-05-07T16:09:02.499Z,14.07
2019-05-07T16:11:38.872Z,15.90
2019-05-07T16:14:16.476Z,14.60
2019-05-07T16:16:52.531Z,20.37
2019-05-07T16:19:29.101Z,19.75
2019-05-07T16:22:06.588Z,18.92
2019-05-07T16:24:43.629Z,19.02
2019-05-07T16:27:19.567Z,20.77
2019-05-07T16:29:55.484Z,18.57
2019-05-07T16:32:32.870Z,18.45
2019-05-07T16:35:08.871Z,18.60
2019-05-07T16:37:44.838Z,17.30
2019-05-07T16:40:22.956Z,17.85
2019-05-07T16:42:59.017Z,18.37
2019-05-07T16:45:35.003Z,19.00
2019-05-07T16:48:11.940Z,15.90
2019-05-07T16:50:48.063Z,14.60
2019-05-07T16:53:29.740Z,17.85
2019-05-07T16:56:02.947Z,16.32
2019-05-07T16:58:46.295Z,12.88
2019-05-07T17:01:24.470Z,14.87
2019-05-07T17:04:02.601Z,18.25
2019-05-07T17:06:38.349Z,25.23
2019-05-07T17:09:14.836Z,28.47
2019-05-07T17:11:52.717Z,27.00
2019-05-07T17:14:28.572Z,24.55
2019-05-07T17:17:04.551Z,22.32
2019-05-07T17:19:42.423Z,20.55
2019-05-07T17:22:18.085Z,25.23
2019-05-07T17:24:53.972Z,35.08
2019-05-07T17:27:31.669Z,30.05
2019-05-07T17:30:07.810Z,35.88
2019-05-07T17:35:18.624Z,35.05
2019-05-07T17:38:06.091Z,36.55
2019-05-07T17:40:32.201Z,36.28
2019-05-07T17:43:08.082Z,30.52
2019-05-07T17:45:44.002Z,33.42
2019-05-07T17:48:19.886Z,45.17
2019-05-07T17:51:00.290Z,46.42
2019-05-07T17:53:36.208Z,50.45
2019-05-07T17:56:12.805Z,53.73
2019-05-07T17:58:48.783Z,56.80
2019-05-07T18:01:26.269Z,31.93
2019-05-07T18:04:02.929Z,29.15
2019-05-07T18:06:39.164Z,31.30
2019-05-07T18:09:15.311Z,37.08
2019-05-07T18:11:52.255Z,60.28
2019-05-07T18:14:31.958Z,51.68
2019-05-07T18:17:15.152Z,29.77
2019-05-07T18:19:51.122Z,58.20
2019-05-07T18:22:27.081Z,40.90
2019-05-07T18:25:03.603Z,35.70
2019-05-07T18:27:39.608Z,88.22
2019-05-07T18:30:15.860Z,58.85
2019-05-07T18:32:53.353Z,107.30
2019-05-07T18:35:29.309Z,254.13
2019-05-07T18:38:05.377Z,77.17
2019-05-07T18:40:42.162Z,47.10
2019-05-07T18:43:18.406Z,103.35
2019-05-07T18:45:54.365Z,105.20
2019-05-07T18:48:30.430Z,92.02
2019-05-07T18:51:06.397Z,103.30
2019-05-07T18:53:42.653Z,91.97
2019-05-07T18:56:18.702Z,93.37
2019-05-07T18:58:54.668Z,74.82
2019-05-07T19:01:32.821Z,92.27
2019-05-07T19:04:09.027Z,78.65
2019-05-07T19:06:44.996Z,66.55
2019-05-07T19:09:22.517Z,78.55
2019-05-07T19:11:58.662Z,73.28
2019-05-07T19:14:34.706Z,72.30
2019-05-07T19:17:12.208Z,80.62
2019-05-07T19:19:48.144Z,91.42
2019-05-07T19:22:24.102Z,89.20
2019-05-07T19:25:00.075Z,80.50
2019-05-07T19:27:36.025Z,62.60
2019-05-07T19:30:13.046Z,65.80
2019-05-07T19:32:49.362Z,60.05
2019-05-07T19:35:25.429Z,54.18
2019-05-07T19:38:02.860Z,56.55
2019-05-07T19:40:39.071Z,53.85
2019-05-07T19:43:16.266Z,56.00
2019-05-07T19:45:52.495Z,53.30
2019-05-07T19:48:28.692Z,47.17
2019-05-07T19:51:04.647Z,51.50
2019-05-07T19:53:41.997Z,57.45
2019-05-07T19:56:21.911Z,73.52
2019-05-07T19:58:58.135Z,73.72
2019-05-07T20:01:35.845Z,67.03
2019-05-07T20:04:13.260Z,70.05
2019-05-07T20:06:49.388Z,68.17
2019-05-07T20:09:26.992Z,63.20
2019-05-07T20:12:03.313Z,77.25
2019-05-07T20:14:39.222Z,78.17
2019-05-07T20:17:15.157Z,76.70
2019-05-07T20:19:52.721Z,71.67
2019-05-07T20:22:28.679Z,66.60
2019-05-07T20:25:15.406Z,68.00
2019-05-07T20:27:44.309Z,64.20
2019-05-07T20:30:22.737Z,74.92
2019-05-07T20:32:58.063Z,75.30
2019-05-07T20:35:37.305Z,73.42
2019-05-07T20:38:11.727Z,77.82
2019-05-07T20:40:47.672Z,86.90
2019-05-07T20:43:23.846Z,101.18
2019-05-07T20:45:59.903Z,103.62
2019-05-07T20:48:35.806Z,96.55
2019-05-07T20:51:12.504Z,94.77
2019-05-07T20:54:05.305Z,101.87
2019-05-07T20:56:42.833Z,88.55
2019-05-07T20:59:18.739Z,76.67
2019-05-07T21:01:54.690Z,74.75
2019-05-07T21:04:32.823Z,84.07
2019-05-07T21:07:11.579Z,84.72
2019-05-07T21:09:46.552Z,91.10
2019-05-07T21:12:22.743Z,105.63
2019-05-07T21:14:59.193Z,96.45
2019-05-07T21:17:35.128Z,100.80
2019-05-07T21:20:12.415Z,95.15
2019-05-07T21:22:48.373Z,90.45
2019-05-07T21:25:24.327Z,100.87
2019-05-07T21:28:02.123Z,107.90
2019-05-07T21:30:37.980Z,97.57
2019-05-07T21:33:13.948Z,90.30
2019-05-07T21:35:52.087Z,101.75
2019-05-07T21:38:28.516Z,108.78
2019-05-07T21:41:04.472Z,132.20
2019-05-07T21:43:43.063Z,109.57
2019-05-07T21:46:18.121Z,94.05
2019-05-07T21:48:54.090Z,97.20
2019-05-07T21:51:29.989Z,114.97
2019-05-07T21:54:13.570Z,130.05
2019-05-07T21:56:52.221Z,107.43
2019-05-07T21:59:35.011Z,88.42
2019-05-07T22:02:15.990Z,82.08
2019-05-07T22:04:52.899Z,73.55
2019-05-07T22:07:29.132Z,67.78
2019-05-07T22:10:07.648Z,60.17
2019-05-07T22:12:43.606Z,57.43
2019-05-07T22:15:22.481Z,61.68
2019-05-07T22:17:58.589Z,55.03
2019-05-07T22:20:34.545Z,53.63
2019-05-07T22:23:10.490Z,53.25
2019-05-07T22:25:46.454Z,46.18
2019-05-07T22:28:22.596Z,47.98
2019-05-07T22:31:02.203Z,48.33
2019-05-07T22:33:39.335Z,56.92
2019-05-07T22:36:15.299Z,56.33
2019-05-07T22:39:09.269Z,49.23
2019-05-07T22:41:46.772Z,48.20
2019-05-07T22:44:26.376Z,44.20
2019-05-07T22:47:03.284Z,48.55
2019-05-07T22:49:39.250Z,43.65
2019-05-07T22:52:15.196Z,47.05
2019-05-07T22:54:51.162Z,42.50
2019-05-07T22:57:28.644Z,36.48
2019-05-07T23:00:07.683Z,39.15
2019-05-07T23:02:45.174Z,37.55
2019-05-07T23:05:23.002Z,42.05
2019-05-07T23:07:58.828Z,41.30
2019-05-07T23:10:34.783Z,37.28
2019-05-07T23:13:12.840Z,40.43
2019-05-07T23:15:48.314Z,41.30
2019-05-07T23:18:24.289Z,43.45
2019-05-07T23:21:00.247Z,41.80
2019-05-07T23:23:36.398Z,47.73
2019-05-07T23:26:14.768Z,45.85
2019-05-07T23:28:51.879Z,52.48
2019-05-07T23:31:27.762Z,61.13
2019-05-07T23:34:03.717Z,57.95
2019-05-07T23:36:39.666Z,68.65
2019-05-07T23:39:17.154Z,76.22
2019-05-07T23:42:03.883Z,72.35
2019-05-07T23:44:41.431Z,64.92
2019-05-07T23:47:17.518Z,64.67
2019-05-07T23:49:53.486Z,56.13
2019-05-07T23:52:29.426Z,58.92
2019-05-07T23:55:06.148Z,60.12
2019-05-07T23:57:43.082Z,63.23
